Time;durP1;ratioP1;P1;durP2;ratioP2;P2;SDS_P1;SDS_P2;PMS_P1;PMS_P2;Temp;Humidity;BMP_temperature;BMP_pressure;BME280_temperature;BME280_humidity;BME280_pressure;Samples;Min_cycle;Max_cycle;Signal;HPM_P1;HPM_P2
2022/05/29 00:01:39;;;;;;;5.45;1.92;;;;;;;9.93;91.72;95616.78;5012174;28;24432;-76
2022/05/29 00:04:05;;;;;;;2.53;1.20;;;;;;;9.98;91.88;95605.34;5011955;28;24444;-75
2022/05/29 00:06:38;;;;;;;14.32;1.63;;;;;;;10.11;92.40;95611.38;5012455;28;24439;-75
2022/05/29 00:09:05;;;;;;;2.22;1.50;;;;;;;10.19;94.38;95604.78;5004605;28;25024;-76
2022/05/29 00:11:32;;;;;;;3.08;1.60;;;;;;;10.12;95.61;95593.19;5012133;28;24849;-75
2022/05/29 00:14:00;;;;;;;2.22;1.20;;;;;;;9.90;89.80;95596.31;5011570;28;24470;-76
2022/05/29 00:16:28;;;;;;;2.15;1.30;;;;;;;9.76;90.91;95604.09;5011999;28;24528;-76
2022/05/29 00:18:54;;;;;;;4.82;1.58;;;;;;;9.91;90.92;95600.53;5011770;28;24432;-75
2022/05/29 00:21:21;;;;;;;4.95;1.35;;;;;;;9.93;89.52;95601.25;5011890;28;24440;-75
2022/05/29 00:23:49;;;;;;;2.88;1.35;;;;;;;10.04;90.21;95597.16;5011643;28;24443;-75
2022/05/29 00:26:16;;;;;;;2.58;1.17;;;;;;;9.92;88.81;95598.78;5011663;28;24882;-75
2022/05/29 00:28:43;;;;;;;3.45;1.58;;;;;;;9.77;88.89;95594.56;5011739;28;24427;-75
2022/05/29 00:31:10;;;;;;;6.55;1.55;;;;;;;9.64;89.99;95591.91;5011643;28;24414;-75
2022/05/29 00:33:38;;;;;;;2.20;1.43;;;;;;;9.51;92.44;95588.41;5011495;28;24502;-76
2022/05/29 00:36:05;;;;;;;2.95;1.40;;;;;;;9.58;91.64;95587.13;5011426;28;24408;-76
2022/05/29 00:38:38;;;;;;;4.13;1.17;;;;;;;9.75;91.32;95586.88;5011503;28;25001;-76
2022/05/29 00:41:11;;;;;;;2.28;1.10;;;;;;;9.68;90.54;95586.47;5004237;28;24432;-75
2022/05/29 00:43:37;;;;;;;3.78;1.40;;;;;;;9.57;90.45;95586.28;5011519;28;24783;-76
2022/05/29 00:46:05;;;;;;;2.03;1.13;;;;;;;9.73;89.64;95588.75;5011499;28;24436;-76
2022/05/29 00:48:32;;;;;;;2.15;1.17;;;;;;;10.05;92.58;95578.13;5011814;28;24428;-76
2022/05/29 00:51:06;;;;;;;2.90;1.35;;;;;;;10.15;93.01;95579.19;5011461;28;24428;-76
2022/05/29 00:53:35;;;;;;;3.20;1.45;;;;;;;10.10;94.99;95565.75;5011262;28;24949;-76
2022/05/29 00:56:06;;;;;;;2.33;1.13;;;;;;;9.90;97.71;95569.56;5010997;28;24479;-76
2022/05/29 00:58:33;;;;;;;2.42;1.30;;;;;;;9.86;97.04;95558.63;5011485;28;24413;-76
2022/05/29 01:01:02;;;;;;;4.70;1.50;;;;;;;9.84;96.43;95563.03;5011421;28;24814;-76
2022/05/29 01:03:28;;;;;;;2.10;1.30;;;;;;;9.84;95.52;95563.03;5011236;28;24428;-75
2022/05/29 01:05:55;;;;;;;2.35;1.40;;;;;;;9.92;93.70;95562.56;5011179;28;24471;-76
2022/05/29 01:08:26;;;;;;;4.77;1.57;;;;;;;9.86;88.85;95563.78;5011081;28;24507;-76
2022/05/29 01:11:06;;;;;;;2.60;1.40;;;;;;;9.75;88.68;95560.19;5010838;28;24430;-76
2022/05/29 01:13:48;;;;;;;2.78;1.70;;;;;;;9.87;89.08;95564.63;5011337;28;24421;-76
2022/05/29 01:16:24;;;;;;;2.78;1.40;;;;;;;9.81;87.37;95559.81;5011235;28;24492;-75
2022/05/29 01:19:06;;;;;;;3.17;1.80;;;;;;;9.75;87.73;95560.19;5011003;28;24420;-76
2022/05/29 01:21:50;;;;;;;4.18;1.95;;;;;;;9.59;89.52;95555.16;5010675;28;24413;-76
2022/05/29 01:24:36;;;;;;;3.65;1.73;;;;;;;9.49;90.66;95556.66;5010613;28;24440;-75
2022/05/29 01:27:17;;;;;;;2.05;1.23;;;;;;;9.57;90.05;95555.28;5010932;28;24447;-76
2022/05/29 01:29:53;;;;;;;1.98;1.33;;;;;;;9.62;88.24;95552.38;5010658;28;24482;-75
2022/05/29 01:32:28;;;;;;;8.13;2.20;;;;;;;9.72;88.30;95548.31;5010955;28;20902;-75
2022/05/29 01:35:01;;;;;;;4.32;1.50;;;;;;;9.86;88.94;95543.09;5010616;28;24431;-75
2022/05/29 01:37:32;;;;;;;3.63;1.80;;;;;;;10.01;89.93;95541.28;5010778;28;24423;-75
2022/05/29 01:40:05;;;;;;;2.45;1.67;;;;;;;10.08;91.57;95542.53;5010660;28;24420;-76
2022/05/29 01:42:37;;;;;;;2.80;1.67;;;;;;;10.13;91.84;95532.72;5010831;28;24432;-76
2022/05/29 01:45:11;;;;;;;3.90;1.60;;;;;;;10.16;90.52;95536.88;5010202;28;25020;-76
2022/05/29 01:47:44;;;;;;;4.18;1.67;;;;;;;10.22;88.68;95523.53;5010693;28;24441;-76
2022/05/29 01:50:17;;;;;;;2.25;1.30;;;;;;;10.18;86.59;95535.84;5010603;28;24415;-76
2022/05/29 01:52:49;;;;;;;2.78;1.33;;;;;;;10.06;85.66;95531.47;5010202;28;24463;-76
2022/05/29 01:55:21;;;;;;;7.53;2.05;;;;;;;9.94;84.42;95517.56;5010203;28;24954;-76
2022/05/29 01:57:52;;;;;;;2.88;1.33;;;;;;;9.98;87.33;95519.97;5010710;28;24431;-76
2022/05/29 02:00:22;;;;;;;3.70;1.50;;;;;;;9.97;84.91;95515.69;5010563;28;24428;-75
2022/05/29 02:02:52;;;;;;;2.95;1.33;;;;;;;10.00;88.01;95513.75;5010419;28;24996;-76
2022/05/29 02:05:24;;;;;;;2.90;1.20;;;;;;;9.74;79.36;95504.25;5010405;28;24993;-76
2022/05/29 02:07:57;;;;;;;2.33;1.30;;;;;;;9.77;78.31;95499.69;5010381;28;24786;-75
2022/05/29 02:10:30;;;;;;;2.75;1.27;;;;;;;9.91;82.57;95497.06;5010522;28;24423;-75
2022/05/29 02:13:05;;;;;;;2.60;1.27;;;;;;;10.10;82.72;95488.94;5010470;28;20766;-75
2022/05/29 02:15:39;;;;;;;2.00;1.20;;;;;;;10.09;84.58;95481.28;5009972;28;24415;-76
2022/05/29 02:18:13;;;;;;;3.75;1.60;;;;;;;9.92;82.64;95482.38;5010587;28;24416;-76
2022/05/29 02:20:45;;;;;;;4.40;1.35;;;;;;;9.86;82.41;95473.25;5010447;28;20762;-76
2022/05/29 02:23:17;;;;;;;2.33;1.25;;;;;;;9.79;83.21;95479.75;5010127;28;24941;-76
2022/05/29 02:25:44;;;;;;;2.08;1.30;;;;;;;9.80;83.86;95478.81;5009922;28;24440;-75
2022/05/29 02:28:17;;;;;;;6.68;1.27;;;;;;;9.78;83.63;95483.25;5010217;28;24428;-75
2022/05/29 02:30:49;;;;;;;2.92;1.20;;;;;;;9.69;79.29;95479.50;5010384;28;24412;-76
2022/05/29 02:33:22;;;;;;;5.77;1.60;;;;;;;9.82;80.27;95489.88;5010109;28;25075;-76
2022/05/29 02:35:56;;;;;;;2.43;1.23;;;;;;;9.81;81.25;95480.47;5009975;28;24919;-76
2022/05/29 02:38:32;;;;;;;2.17;1.27;;;;;;;9.82;81.26;95484.72;5012355;28;24965;-75
2022/05/29 02:41:03;;;;;;;2.60;1.15;;;;;;;9.84;80.56;95476.88;5014073;28;20807;-75
2022/05/29 02:43:40;;;;;;;1.85;1.20;;;;;;;9.86;80.73;95475.00;5013880;28;24478;-75
2022/05/29 02:46:18;;;;;;;3.67;1.30;;;;;;;9.94;79.48;95473.59;5013437;28;24451;-75
2022/05/29 02:48:51;;;;;;;2.25;1.35;;;;;;;10.04;78.39;95471.22;5013490;28;24462;-76
2022/05/29 02:51:25;;;;;;;2.97;1.33;;;;;;;9.80;79.58;95460.72;5013495;28;24492;-75
2022/05/29 02:53:51;;;;;;;3.65;1.30;;;;;;;9.84;78.83;95461.34;5013400;28;24463;-75
2022/05/29 02:56:18;;;;;;;2.78;1.33;;;;;;;9.66;81.23;95458.19;5013561;28;24478;-75
2022/05/29 02:58:49;;;;;;;2.05;1.20;;;;;;;9.49;84.05;95453.25;5013264;28;24439;-75
2022/05/29 03:01:34;;;;;;;2.50;1.48;;;;;;;9.41;85.38;95451.97;5013306;28;20823;-75
2022/05/29 03:04:13;;;;;;;3.38;1.88;;;;;;;9.39;87.68;95453.03;5013051;28;24830;-76
2022/05/29 03:06:46;;;;;;;3.50;1.48;;;;;;;9.41;88.10;95448.56;5013202;28;24518;-76
2022/05/29 03:09:39;;;;;;;2.42;1.48;;;;;;;9.43;87.84;95451.91;5013239;28;24461;-76
2022/05/29 03:12:13;;;;;;;2.88;1.45;;;;;;;9.42;87.86;95447.66;5013193;28;24436;-76
2022/05/29 03:14:47;;;;;;;2.73;1.40;;;;;;;9.40;86.42;95450.31;5012744;28;25049;-75
2022/05/29 03:17:23;;;;;;;3.58;1.42;;;;;;;9.30;82.31;95441.47;5012995;28;24437;-76
2022/05/29 03:19:57;;;;;;;3.25;1.42;;;;;;;9.14;80.05;95446.78;5012886;28;24423;-75
2022/05/29 03:22:32;;;;;;;3.25;1.33;;;;;;;9.17;79.17;95443.19;5012815;28;24790;-76
2022/05/29 03:25:05;;;;;;;2.45;1.40;;;;;;;9.27;81.18;95446.00;5012603;28;25087;-77
2022/05/29 03:27:40;;;;;;;3.00;1.50;;;;;;;9.17;84.31;95445.78;5012650;28;24424;-77
2022/05/29 03:30:11;;;;;;;1.73;0.95;;;;;;;9.17;84.32;95450.94;5012569;28;24860;-77
2022/05/29 03:32:39;;;;;;;7.05;1.58;;;;;;;9.16;83.92;95454.47;5012152;28;20762;-77
2022/05/29 03:35:21;;;;;;;2.20;1.20;;;;;;;9.13;83.24;95454.66;5012124;28;20801;-77
2022/05/29 03:37:48;;;;;;;3.63;1.48;;;;;;;9.01;83.83;95445.06;5012444;28;21291;-76
2022/05/29 03:40:14;;;;;;;3.83;1.52;;;;;;;8.70;85.61;95447.75;5012769;28;24601;-77
2022/05/29 03:42:41;;;;;;;3.47;1.70;;;;;;;8.89;85.31;95446.66;5012661;28;20781;-74
2022/05/29 03:45:09;;;;;;;2.78;1.58;;;;;;;9.09;84.83;95448.03;5012097;28;20783;-74
2022/05/29 03:47:36;;;;;;;3.08;1.63;;;;;;;9.12;84.73;95438.31;5012752;28;24424;-74
2022/05/29 03:50:04;;;;;;;10.45;1.67;;;;;;;9.19;84.92;95439.56;5011477;28;24428;-74
2022/05/29 03:52:31;;;;;;;2.05;1.23;;;;;;;9.17;85.24;95444.03;5026461;23;24484;-74
2022/05/29 03:54:58;;;;;;;3.58;1.55;;;;;;;9.08;84.06;95446.34;5012391;28;20762;-74
2022/05/29 03:57:24;;;;;;;5.18;1.77;;;;;;;8.80;83.64;95445.47;5012473;28;24814;-74
2022/05/29 03:59:51;;;;;;;5.82;1.73;;;;;;;8.70;85.15;95452.94;5012298;28;24427;-74
2022/05/29 04:02:18;;;;;;;7.50;2.08;;;;;;;8.46;88.29;95449.25;5012341;28;24427;-74
2022/05/29 04:04:44;;;;;;;4.65;1.83;;;;;;;8.40;87.45;95439.28;5011804;28;24960;-74
2022/05/29 04:07:12;;;;;;;6.47;1.42;;;;;;;8.77;86.75;95434.50;5012269;28;24424;-74
2022/05/29 04:12:23;;;;;;;4.18;1.63;;;;;;;8.69;81.33;95438.38;5012133;28;20795;-74
2022/05/29 04:14:49;;;;;;;7.25;1.67;;;;;;;8.68;83.65;95443.63;5011925;28;24523;-74
2022/05/29 04:17:18;;;;;;;2.80;1.30;;;;;;;8.51;87.53;95447.22;5012052;28;24412;-73
2022/05/29 04:19:45;;;;;;;2.75;1.25;;;;;;;8.63;87.01;95443.06;5012103;28;20766;-73
2022/05/29 04:22:15;;;;;;;4.83;1.47;;;;;;;8.39;89.17;95446.19;5011747;28;25094;-73
2022/05/29 04:24:42;;;;;;;2.05;1.25;;;;;;;8.20;92.92;95448.19;5011605;28;20713;-73
2022/05/29 04:27:10;;;;;;;3.40;1.30;;;;;;;8.07;95.62;95439.47;5011908;28;24436;-73
2022/05/29 04:29:37;;;;;;;2.80;1.30;;;;;;;8.19;96.85;95436.19;5012022;28;20846;-73
2022/05/29 04:34:48;;;;;;;2.80;1.60;;;;;;;8.62;94.55;95431.09;5011535;28;21221;-74
2022/05/29 04:37:16;;;;;;;2.85;1.42;;;;;;;8.67;97.16;95435.03;5011494;28;21176;-74
2022/05/29 04:39:42;;;;;;;4.43;1.67;;;;;;;9.03;94.88;95433.72;5011840;28;20859;-75
2022/05/29 04:42:10;;;;;;;2.60;1.30;;;;;;;9.04;95.81;95431.94;5011897;28;20758;-74
2022/05/29 04:44:37;;;;;;;4.90;1.50;;;;;;;9.26;93.94;95421.09;5011365;28;20799;-74
2022/05/29 04:47:04;;;;;;;4.03;1.55;;;;;;;8.84;98.40;95436.59;5011421;28;24440;-74
2022/05/29 04:49:31;;;;;;;4.93;1.70;;;;;;;8.86;99.31;95436.50;5011312;28;24416;-74
2022/05/29 04:51:58;;;;;;;4.63;1.50;;;;;;;8.46;100.00;95444.09;5010958;28;24486;-74
2022/05/29 04:54:26;;;;;;;5.40;1.95;;;;;;;8.48;100.00;95439.66;5011458;28;20754;-74
2022/05/29 04:56:52;;;;;;;2.97;1.50;;;;;;;8.27;100.00;95436.59;5011461;28;20754;-74
2022/05/29 04:59:18;;;;;;;4.57;1.80;;;;;;;8.04;100.00;95437.06;5011145;28;25116;-74
2022/05/29 05:01:45;;;;;;;6.63;2.10;;;;;;;8.06;100.00;95435.25;5011104;28;20766;-75
2022/05/29 05:04:12;;;;;;;5.97;1.90;;;;;;;7.96;100.00;95438.34;5010882;28;21269;-74
2022/05/29 05:06:38;;;;;;;4.95;2.30;;;;;;;8.09;100.00;95435.06;5011244;28;21184;-74
2022/05/29 05:09:04;;;;;;;4.10;2.00;;;;;;;8.12;100.00;95437.44;5010947;28;24702;-74
2022/05/29 05:11:32;;;;;;;4.72;1.80;;;;;;;7.96;100.00;95443.50;5009263;28;21169;-74
2022/05/29 05:13:59;;;;;;;4.82;1.90;;;;;;;8.10;100.00;95434.16;5009072;28;21323;-74
2022/05/29 05:16:25;;;;;;;5.53;2.10;;;;;;;7.98;100.00;95431.38;5008306;28;24440;-74
2022/05/29 05:18:52;;;;;;;3.37;1.43;;;;;;;8.05;100.00;95433.59;5009962;28;24518;-75
2022/05/29 05:21:18;;;;;;;4.03;2.00;;;;;;;7.95;100.00;95435.88;5011091;28;20762;-75
2022/05/29 05:23:45;;;;;;;3.97;1.80;;;;;;;8.02;100.00;95436.34;5010707;28;24829;-74
2022/05/29 05:26:13;;;;;;;5.72;1.88;;;;;;;8.19;100.00;95428.44;5010723;28;21335;-73
2022/05/29 05:28:40;;;;;;;4.65;1.98;;;;;;;8.32;100.00;95433.72;5010920;28;24786;-73
2022/05/29 05:31:07;;;;;;;3.83;1.73;;;;;;;8.44;100.00;95433.84;5010936;28;21168;-74
2022/05/29 05:33:33;;;;;;;4.05;1.70;;;;;;;8.57;100.00;95423.63;5010529;28;24420;-73
2022/05/29 05:36:00;;;;;;;5.85;2.08;;;;;;;8.70;100.00;95428.88;5010623;28;24421;-74
2022/05/29 05:38:26;;;;;;;4.57;1.80;;;;;;;8.57;100.00;95423.63;5010823;28;24445;-73
2022/05/29 05:40:53;;;;;;;5.43;2.03;;;;;;;8.73;100.00;95423.53;5010773;28;24432;-74
2022/05/29 05:43:20;;;;;;;5.10;2.10;;;;;;;8.77;100.00;95422.41;5011172;28;24424;-74
2022/05/29 05:45:48;;;;;;;5.80;1.98;;;;;;;8.53;100.00;95426.47;5010147;28;24540;-74
2022/05/29 05:48:15;;;;;;;4.72;2.30;;;;;;;8.51;100.00;95426.56;5010522;28;20759;-75
2022/05/29 05:50:42;;;;;;;7.28;2.28;;;;;;;8.61;100.00;95429.44;5011251;28;20870;-76
2022/05/29 05:53:08;;;;;;;4.28;1.92;;;;;;;8.68;100.00;95430.72;5009829;28;20778;-74
2022/05/29 05:55:36;;;;;;;4.95;2.03;;;;;;;8.80;100.00;95427.38;5010535;28;20778;-75
2022/05/29 05:58:03;;;;;;;4.97;1.95;;;;;;;9.00;100.00;95431.31;5010844;28;20804;-76
2022/05/29 06:00:30;;;;;;;3.67;1.85;;;;;;;8.93;99.12;95430.84;5010623;28;20862;-76
2022/05/29 06:02:58;;;;;;;10.48;2.47;;;;;;;9.09;99.86;95427.34;5010619;28;25023;-76
2022/05/29 06:05:26;;;;;;;5.20;1.87;;;;;;;9.51;97.14;95426.38;5010562;28;24755;-74
2022/05/29 06:07:52;;;;;;;4.45;1.83;;;;;;;9.56;94.16;95431.25;5010489;28;24471;-76
2022/05/29 06:10:19;;;;;;;5.88;2.05;;;;;;;9.75;95.16;95436.88;5010240;28;21307;-76
2022/05/29 06:12:45;;;;;;;5.70;2.10;;;;;;;9.99;96.34;95431.88;5011907;28;20845;-76
2022/05/29 06:15:13;;;;;;;7.60;1.85;;;;;;;10.36;94.11;95432.06;5013777;28;24447;-76
2022/05/29 06:17:39;;;;;;;8.15;1.90;;;;;;;10.58;90.64;95434.84;5013763;28;24424;-76
2022/05/29 06:20:09;;;;;;;3.90;1.80;;;;;;;10.68;87.31;95429.88;5013489;28;25016;-76
2022/05/29 06:22:36;;;;;;;7.45;1.50;;;;;;;10.61;87.62;95436.41;5013438;28;24526;-76
2022/05/29 06:25:03;;;;;;;4.13;1.67;;;;;;;10.49;84.47;95442.41;5012435;28;24776;-76
2022/05/29 06:27:30;;;;;;;4.72;1.85;;;;;;;9.93;86.03;95445.22;5013273;28;24822;-76
2022/05/29 06:29:57;;;;;;;5.07;1.95;;;;;;;9.51;90.36;95448.81;5014324;28;24535;-76
2022/05/29 06:32:23;;;;;;;4.57;2.10;;;;;;;9.48;91.27;95447.25;5013360;28;25076;-76
2022/05/29 06:34:50;;;;;;;5.57;2.30;;;;;;;9.58;89.24;95450.91;5013279;28;24478;-75
2022/05/29 06:37:17;;;;;;;6.80;2.25;;;;;;;9.72;90.25;95444.88;5013867;28;20766;-75
2022/05/29 06:39:44;;;;;;;4.55;2.08;;;;;;;9.92;88.15;95451.31;5013809;28;24420;-75
2022/05/29 06:42:11;;;;;;;5.18;1.70;;;;;;;10.31;87.93;95450.50;5013482;28;24491;-75
2022/05/29 06:44:37;;;;;;;6.10;1.90;;;;;;;10.89;83.47;95441.34;5013470;28;24995;-75
2022/05/29 06:47:07;;;;;;;4.63;1.75;;;;;;;10.57;81.54;95435.78;5013648;28;24514;-75
2022/05/29 06:49:33;;;;;;;5.75;2.10;;;;;;;10.24;82.74;95438.88;5013860;28;20775;-76
2022/05/29 06:52:00;;;;;;;6.00;2.17;;;;;;;10.62;81.98;95441.47;5013341;28;24432;-73
2022/05/29 06:54:28;;;;;;;5.55;1.83;;;;;;;10.33;81.14;95452.97;5012081;28;24483;-76
2022/05/29 06:56:54;;;;;;;6.32;1.98;;;;;;;10.71;80.46;95441.78;5012471;28;24434;-74
2022/05/29 06:59:21;;;;;;;6.00;1.95;;;;;;;10.59;78.50;95441.69;5010303;28;24444;-75
2022/05/29 07:07:18;;;;;;;5.45;2.08;;;;;;;10.63;82.19;95461.25;4993452;28;24467;-76
2022/05/29 07:09:46;;;;;;;4.68;1.90;;;;;;;10.39;86.27;95457.75;5000507;28;24436;-76
2022/05/29 07:12:16;;;;;;;6.93;1.85;;;;;;;10.09;89.24;95465.75;5012329;28;24436;-76
2022/05/29 07:14:45;;;;;;;9.02;2.40;;;;;;;10.30;84.95;95472.13;5012208;28;24440;-76
2022/05/29 07:17:12;;;;;;;5.70;1.77;;;;;;;9.97;89.50;95476.88;5012499;28;24440;-76
2022/05/29 07:19:40;;;;;;;6.28;2.22;;;;;;;10.16;85.76;95475.59;5012532;28;24467;-76
2022/05/29 07:22:07;;;;;;;7.38;2.28;;;;;;;9.87;87.36;95474.09;5012551;28;24431;-76
2022/05/29 07:24:36;;;;;;;7.20;1.77;;;;;;;10.07;87.05;95478.78;5012639;28;24427;-76
2022/05/29 07:27:04;;;;;;;4.97;1.75;;;;;;;10.10;86.31;95483.75;5013115;28;20812;-76
2022/05/29 07:29:30;;;;;;;4.75;1.90;;;;;;;9.97;87.59;95482.88;5012799;28;24471;-76
2022/05/29 07:31:57;;;;;;;4.78;1.80;;;;;;;10.04;88.25;95485.91;5012831;28;24433;-76
2022/05/29 07:34:24;;;;;;;6.00;2.00;;;;;;;9.60;91.19;95489.59;5012201;28;24432;-76
2022/05/29 07:36:51;;;;;;;6.50;1.92;;;;;;;9.51;89.99;95482.44;5012114;28;24853;-76
2022/05/29 07:39:19;;;;;;;5.72;2.25;;;;;;;9.56;89.99;95488.13;5011968;28;20824;-76
2022/05/29 07:44:31;;;;;;;5.30;2.28;;;;;;;9.35;91.64;95485.16;5009694;28;24451;-76
2022/05/29 07:46:57;;;;;;;7.43;1.90;;;;;;;9.18;91.97;95492.19;5011954;28;24457;-76
2022/05/29 07:49:24;;;;;;;5.63;2.00;;;;;;;9.15;93.06;95489.78;5012382;28;24969;-76
2022/05/29 07:51:51;;;;;;;6.07;2.00;;;;;;;9.22;91.38;95498.00;5012373;28;24455;-76
2022/05/29 07:54:17;;;;;;;7.05;2.30;;;;;;;9.01;93.09;95497.56;5012727;28;24417;-77
2022/05/29 07:56:44;;;;;;;5.60;2.00;;;;;;;9.00;94.60;95500.22;5011693;28;25138;-75
2022/05/29 07:59:10;;;;;;;5.70;2.03;;;;;;;9.01;96.27;95497.56;5011612;28;24443;-76
2022/05/29 08:01:38;;;;;;;11.40;2.40;;;;;;;9.10;95.87;95499.59;5008922;28;20873;-76
2022/05/29 08:04:05;;;;;;;7.82;2.47;;;;;;;8.99;98.80;95506.34;5011403;28;24437;-76
2022/05/29 08:06:31;;;;;;;3.72;1.85;;;;;;;9.28;96.49;95515.72;5012037;28;21187;-75
2022/05/29 08:08:58;;;;;;;5.72;2.50;;;;;;;8.98;99.24;95513.25;5011617;28;20778;-74
2022/05/29 08:11:24;;;;;;;5.47;2.20;;;;;;;8.91;100.00;95520.53;5011428;28;24428;-75
2022/05/29 08:13:51;;;;;;;5.80;2.10;;;;;;;8.71;100.00;95523.47;5002860;28;24456;-75
2022/05/29 08:16:18;;;;;;;5.57;2.53;;;;;;;8.79;100.00;95526.44;5005183;28;20924;-75
2022/05/29 08:18:46;;;;;;;7.18;2.53;;;;;;;8.63;100.00;95523.91;5011786;28;20806;-75
2022/05/29 08:21:15;;;;;;;7.28;2.72;;;;;;;8.53;100.00;95527.13;5011261;28;21381;-75
2022/05/29 08:30:37;;;;;;;6.43;2.42;;;;;;;8.41;100.00;95524.34;5006191;28;20820;-75
2022/05/29 08:31:56;;;;;;;8.23;2.85;;;;;;;7.99;100.00;95525.03;4992090;28;20735;-75
2022/05/29 08:34:24;;;;;;;8.50;2.80;;;;;;;8.06;100.00;95525.53;4998317;28;24824;-75
2022/05/29 08:36:50;;;;;;;9.05;2.92;;;;;;;8.12;100.00;95527.72;5007311;28;20837;-74
2022/05/29 08:39:16;;;;;;;4.95;2.60;;;;;;;8.04;100.00;95530.75;5010959;28;24444;-75
2022/05/29 08:41:48;;;;;;;6.68;2.70;;;;;;;8.05;100.00;95531.59;5011102;28;24479;-74
2022/05/29 08:44:17;;;;;;;13.70;2.80;;;;;;;7.92;100.00;95534.03;5007427;28;20761;-74
2022/05/29 08:46:49;;;;;;;7.93;2.83;;;;;;;7.96;100.00;95536.34;5009228;28;20907;-74
2022/05/29 08:49:18;;;;;;;7.40;2.47;;;;;;;7.97;100.00;95532.88;5008663;28;21052;-74
2022/05/29 08:52:01;;;;;;;6.88;2.90;;;;;;;8.04;100.00;95533.31;5010914;28;20809;-74
2022/05/29 08:54:40;;;;;;;9.05;2.95;;;;;;;7.99;100.00;95533.59;5010307;28;20819;-74
2022/05/29 08:57:14;;;;;;;5.93;2.75;;;;;;;8.03;100.00;95534.25;5010787;28;20649;-74
2022/05/29 08:59:48;;;;;;;6.88;2.67;;;;;;;7.99;100.00;95536.16;5010483;28;20700;-74
2022/05/29 09:02:29;;;;;;;7.70;2.50;;;;;;;8.03;100.00;95531.66;5008731;28;20673;-74
2022/05/29 09:05:01;;;;;;;6.30;2.67;;;;;;;8.03;100.00;95530.84;5009289;28;20661;-74
2022/05/29 09:07:32;;;;;;;4.85;2.47;;;;;;;8.00;100.00;95537.00;5007984;28;20753;-75
2022/05/29 09:10:02;;;;;;;6.60;2.58;;;;;;;7.87;100.00;95528.31;5010233;28;20774;-75
2022/05/29 09:12:34;;;;;;;5.70;2.63;;;;;;;7.88;100.00;95525.63;5010606;28;20814;-75
2022/05/29 09:15:07;;;;;;;8.68;2.75;;;;;;;7.98;100.00;95525.97;5010280;28;20739;-75
2022/05/29 09:17:38;;;;;;;8.95;2.38;;;;;;;7.97;100.00;95525.13;5008124;28;24527;-74
2022/05/29 09:20:09;;;;;;;4.07;1.98;;;;;;;7.79;100.00;95525.31;5011097;28;20686;-75
2022/05/29 09:22:40;;;;;;;3.33;1.80;;;;;;;7.59;100.00;95526.41;5008514;28;20861;-75
2022/05/29 09:25:10;;;;;;;4.53;1.83;;;;;;;7.34;100.00;95532.91;5010404;28;20675;-74
2022/05/29 09:27:39;;;;;;;6.78;2.22;;;;;;;7.46;100.00;95534.00;5010426;28;20882;-74
2022/05/29 09:30:07;;;;;;;4.60;2.55;;;;;;;7.38;100.00;95533.56;5010464;28;24428;-74
2022/05/29 09:32:36;;;;;;;4.63;2.17;;;;;;;7.67;100.00;95537.13;5007871;28;24444;-75
2022/05/29 09:35:12;;;;;;;3.75;1.65;;;;;;;7.83;100.00;95527.66;5010132;28;20804;-75
2022/05/29 09:37:52;;;;;;;4.32;1.85;;;;;;;7.66;100.00;95538.88;5008402;28;24425;-75
2022/05/29 09:40:23;;;;;;;3.05;1.40;;;;;;;7.85;100.00;95536.09;5008287;28;24436;-75
2022/05/29 09:42:52;;;;;;;7.72;1.95;;;;;;;7.60;100.00;95539.22;5009854;28;24439;-75
2022/05/29 09:45:26;;;;;;;5.30;1.97;;;;;;;7.66;100.00;95531.16;5009905;28;20739;-75
2022/05/29 09:50:44;;;;;;;3.60;1.27;;;;;;;7.61;100.00;95537.47;5012239;28;24420;-75
2022/05/29 09:53:15;;;;;;;3.75;1.70;;;;;;;7.60;100.00;95536.66;5014669;28;24447;-75
2022/05/29 09:55:50;;;;;;;2.40;1.43;;;;;;;7.79;100.00;95536.47;5014454;28;24436;-74
2022/05/29 09:58:24;;;;;;;3.67;1.80;;;;;;;8.43;100.00;95539.75;5011789;28;24435;-75
2022/05/29 10:00:58;;;;;;;3.40;1.17;;;;;;;8.54;100.00;95539.97;5013999;28;24528;-75
2022/05/29 10:03:35;;;;;;;2.60;1.17;;;;;;;7.87;100.00;95542.03;5014216;28;24620;-75
2022/05/29 10:06:13;;;;;;;2.60;1.08;;;;;;;7.84;100.00;95541.38;5012483;28;24432;-74
2022/05/29 10:08:41;;;;;;;3.78;1.23;;;;;;;8.25;100.00;95542.44;5011969;28;24448;-75
2022/05/29 10:11:16;;;;;;;2.97;1.45;;;;;;;8.17;100.00;95536.06;5013985;28;24432;-75
2022/05/29 10:13:44;;;;;;;5.20;1.15;;;;;;;8.11;100.00;95536.41;5013637;28;24974;-75
2022/05/29 10:16:12;;;;;;;1.30;0.77;;;;;;;8.24;100.00;95538.19;5010292;28;24523;-74
2022/05/29 10:18:40;;;;;;;1.90;0.70;;;;;;;8.22;100.00;95534.88;5011339;28;24428;-75
2022/05/29 10:21:10;;;;;;;1.75;0.98;;;;;;;8.33;100.00;95526.50;5006809;28;24441;-75
2022/05/29 10:23:39;;;;;;;1.50;0.88;;;;;;;8.57;100.00;95521.72;5013935;28;24802;-75
2022/05/29 10:26:11;;;;;;;1.50;0.77;;;;;;;8.57;100.00;95515.72;5013811;28;24442;-75
2022/05/29 10:28:40;;;;;;;2.63;0.95;;;;;;;8.81;100.00;95510.84;5014452;28;24567;-75
2022/05/29 10:31:08;;;;;;;1.02;0.70;;;;;;;8.93;100.00;95516.09;5013986;28;24989;-75
2022/05/29 10:33:36;;;;;;;2.03;0.90;;;;;;;9.22;100.00;95510.91;5014141;28;24432;-75
2022/05/29 10:36:13;;;;;;;7.90;1.35;;;;;;;9.38;100.00;95515.94;5013819;28;24420;-75
2022/05/29 10:38:40;;;;;;;4.80;1.30;;;;;;;9.29;100.00;95508.78;5014076;28;24424;-75
2022/05/29 10:41:10;;;;;;;5.50;1.40;;;;;;;9.45;100.00;95506.91;5014045;28;24451;-75
2022/05/29 10:43:40;;;;;;;6.22;1.67;;;;;;;9.93;100.00;95508.13;5013842;28;20762;-75
2022/05/29 10:46:15;;;;;;;4.63;1.55;;;;;;;10.54;100.00;95511.09;5013837;28;24490;-75
2022/05/29 10:49:18;;;;;;;2.75;1.50;;;;;;;10.89;100.00;95511.28;5013669;28;21323;-75
2022/05/29 10:52:08;;;;;;;1.98;1.02;;;;;;;10.74;100.00;95516.69;5013635;28;20709;-75
2022/05/29 10:54:55;;;;;;;2.30;1.23;;;;;;;10.16;100.00;95518.78;5013287;28;21240;-74
2022/05/29 10:57:44;;;;;;;3.73;1.40;;;;;;;9.68;100.00;95511.47;5013728;28;20694;-75
2022/05/29 11:00:25;;;;;;;2.58;1.00;;;;;;;9.82;100.00;95512.34;5013619;28;24431;-76
2022/05/29 11:03:21;;;;;;;1.10;0.70;;;;;;;10.13;100.00;95518.97;5006310;28;24460;-75
2022/05/29 11:06:13;;;;;;;1.60;0.80;;;;;;;10.58;100.00;95514.31;5001941;28;20776;-75
2022/05/29 11:08:51;;;;;;;1.65;0.90;;;;;;;11.24;100.00;95502.03;5010670;28;24457;-74
2022/05/29 11:11:31;;;;;;;1.77;1.00;;;;;;;11.13;100.00;95495.00;5003346;28;20719;-75
2022/05/29 11:14:13;;;;;;;2.13;0.93;;;;;;;10.98;99.79;95501.25;5002820;28;20825;-75
2022/05/29 11:16:53;;;;;;;1.88;0.70;;;;;;;10.76;100.00;95494.94;5004778;28;20816;-75
2022/05/29 11:19:51;;;;;;;1.33;0.63;;;;;;;11.48;100.00;95486.50;5010020;28;24440;-74
2022/05/29 11:22:26;;;;;;;1.23;0.60;;;;;;;11.00;100.00;95479.47;4998353;28;20782;-74
2022/05/29 11:25:14;;;;;;;1.80;0.80;;;;;;;11.94;100.00;95478.91;4992985;28;25008;-75
2022/05/29 11:28:04;;;;;;;2.17;1.23;;;;;;;12.24;100.00;95472.41;4995750;28;25262;-75
2022/05/29 11:30:44;;;;;;;2.45;1.08;;;;;;;12.04;98.29;95474.66;5004744;28;24432;-75
2022/05/29 11:33:23;;;;;;;2.08;1.00;;;;;;;12.05;95.48;95478.94;5003281;28;24444;-75
2022/05/29 11:36:05;;;;;;;1.83;0.90;;;;;;;12.35;96.29;95468.06;5006977;28;24428;-75
2022/05/29 11:38:46;;;;;;;2.47;1.00;;;;;;;11.86;94.22;95466.47;5010065;28;24436;-75
2022/05/29 11:41:17;;;;;;;2.55;1.20;;;;;;;11.88;99.78;95455.16;5009199;28;25016;-74
2022/05/29 11:43:51;;;;;;;3.63;1.30;;;;;;;11.46;98.10;95449.47;5004752;28;24448;-73
2022/05/29 11:52:02;;;;;;;3.43;1.27;;;;;;;12.35;98.75;95456.84;5006286;28;25124;-75
2022/05/29 11:54:34;;;;;;;2.95;1.30;;;;;;;12.48;97.56;95454.97;5002580;28;24780;-75
2022/05/29 11:57:06;;;;;;;2.85;0.95;;;;;;;12.28;88.57;95448.69;5004247;28;24795;-76
2022/05/29 11:59:45;;;;;;;3.13;1.20;;;;;;;11.90;91.66;95442.88;5002736;28;24440;-73
2022/05/29 12:02:25;;;;;;;2.78;1.20;;;;;;;12.08;91.50;95436.34;5009216;28;25008;-76
2022/05/29 12:04:56;;;;;;;3.80;1.20;;;;;;;12.22;90.10;95441.34;5000538;28;24460;-75
2022/05/29 12:07:28;;;;;;;3.75;1.00;;;;;;;11.83;84.57;95438.16;4999432;28;24487;-74
2022/05/29 12:09:59;;;;;;;2.97;1.15;;;;;;;11.60;87.78;95444.13;5009685;28;24440;-70
2022/05/29 12:12:32;;;;;;;4.47;1.50;;;;;;;11.46;85.86;95433.91;5009875;28;24451;-70
2022/05/29 12:15:02;;;;;;;2.47;1.25;;;;;;;11.69;92.47;95429.69;5008412;28;25043;-74
2022/05/29 12:17:35;;;;;;;3.25;1.73;;;;;;;12.09;85.03;95433.66;5008082;28;24548;-74
2022/05/29 12:20:06;;;;;;;13.48;1.50;;;;;;;11.98;81.63;95427.59;5003897;28;24973;-74
2022/05/29 12:22:37;;;;;;;3.45;1.58;;;;;;;11.95;84.43;95427.81;5009838;28;24503;-72